Time;durP1;ratioP1;P1;durP2;ratioP2;P2;SDS_P1;SDS_P2;PMS_P1;PMS_P2;Temp;Humidity;BMP_temperature;BMP_pressure;BME280_temperature;BME280_humidity;BME280_pressure;Samples;Min_cycle;Max_cycle;Signal;HPM_P1;HPM_P2
2021/06/24 00:01:06;;;;;;;38.88;8.40;;;25.70;71.50;;;;;;5054134;28;20029;-74
2021/06/24 00:03:34;;;;;;;39.88;8.27;;;25.70;71.70;;;;;;5054055;28;20036;-75
2021/06/24 00:06:01;;;;;;;47.67;8.75;;;25.60;71.30;;;;;;5053989;28;20025;-74
2021/06/24 00:08:27;;;;;;;35.67;8.07;;;25.60;71.10;;;;;;5053989;28;20053;-74
2021/06/24 00:10:55;;;;;;;41.42;8.98;;;25.60;71.10;;;;;;5053837;28;20025;-74
2021/06/24 00:13:21;;;;;;;41.47;8.32;;;25.50;71.30;;;;;;5054045;28;20060;-74
2021/06/24 00:15:48;;;;;;;41.47;7.82;;;25.50;71.10;;;;;;5053459;28;20021;-74
2021/06/24 00:18:13;;;;;;;42.75;7.82;;;25.40;71.60;;;;;;5069352;28;20364;-74
2021/06/24 00:20:41;;;;;;;33.50;7.68;;;25.40;70.70;;;;;;5053503;28;20035;-74
2021/06/24 00:23:07;;;;;;;30.52;6.32;;;25.40;70.30;;;;;;5053687;28;20036;-74
2021/06/24 00:25:33;;;;;;;42.83;8.73;;;25.40;70.20;;;;;;5052279;28;20040;-74
2021/06/24 00:27:59;;;;;;;28.35;7.13;;;25.40;70.10;;;;;;5053624;28;20029;-74
2021/06/24 00:30:25;;;;;;;31.23;7.88;;;25.30;69.90;;;;;;5053574;28;20107;-74
2021/06/24 00:32:51;;;;;;;36.05;7.47;;;25.30;69.90;;;;;;5053139;28;20064;-74
2021/06/24 00:35:17;;;;;;;22.70;6.45;;;25.30;69.90;;;;;;5053395;28;20029;-75
2021/06/24 00:37:43;;;;;;;31.95;7.32;;;25.30;70.00;;;;;;5053217;28;20467;-74
2021/06/24 00:40:11;;;;;;;30.10;7.75;;;25.30;70.00;;;;;;5053120;28;20025;-74
2021/06/24 00:42:39;;;;;;;30.70;7.18;;;25.30;70.00;;;;;;5051986;28;20437;-74
2021/06/24 00:45:07;;;;;;;38.50;8.00;;;25.30;70.20;;;;;;5053480;28;20440;-74
2021/06/24 00:47:33;;;;;;;27.33;7.53;;;25.30;70.30;;;;;;5053332;28;20103;-75
2021/06/24 00:49:59;;;;;;;35.78;7.22;;;25.20;69.90;;;;;;5068660;28;20456;-74
2021/06/24 00:52:25;;;;;;;32.40;7.70;;;25.20;70.00;;;;;;5053615;28;20115;-74
2021/06/24 00:54:52;;;;;;;25.88;6.78;;;25.20;70.00;;;;;;5053527;28;20045;-74
2021/06/24 00:57:19;;;;;;;36.08;7.80;;;25.20;69.80;;;;;;5053187;28;20387;-74
2021/06/24 00:59:45;;;;;;;27.90;6.97;;;25.20;69.70;;;;;;5052912;28;20108;-74
2021/06/24 01:02:10;;;;;;;30.83;6.55;;;25.20;69.60;;;;;;5052952;28;20116;-74
2021/06/24 01:04:36;;;;;;;36.38;7.60;;;25.20;69.40;;;;;;5053226;28;20025;-75
2021/06/24 01:07:03;;;;;;;31.88;6.45;;;25.10;69.10;;;;;;5053251;28;20523;-74
2021/06/24 01:09:29;;;;;;;32.33;7.15;;;25.10;69.00;;;;;;5053319;28;20032;-74
2021/06/24 01:11:55;;;;;;;27.48;6.47;;;25.10;68.70;;;;;;5053520;28;20410;-74
2021/06/24 01:14:22;;;;;;;34.60;6.78;;;25.10;68.50;;;;;;5052941;28;20025;-74
2021/06/24 01:16:51;;;;;;;28.92;6.70;;;25.00;68.20;;;;;;5053060;28;20381;-74
2021/06/24 01:19:17;;;;;;;24.90;6.32;;;25.00;68.00;;;;;;5053134;28;20025;-75
2021/06/24 01:21:47;;;;;;;33.17;6.95;;;25.00;68.00;;;;;;5052899;28;20040;-74
2021/06/24 01:24:13;;;;;;;29.58;7.28;;;25.00;67.90;;;;;;5053054;28;20074;-74
2021/06/24 01:26:41;;;;;;;27.38;6.15;;;25.00;68.10;;;;;;5052980;28;20391;-74
2021/06/24 01:29:07;;;;;;;30.92;7.22;;;25.00;68.30;;;;;;5052910;28;20025;-74
2021/06/24 01:31:33;;;;;;;32.97;7.28;;;25.00;68.50;;;;;;5052656;28;20215;-79
2021/06/24 01:34:00;;;;;;;31.33;7.55;;;25.00;68.50;;;;;;5053366;28;20519;-74
2021/06/24 01:36:27;;;;;;;32.13;6.90;;;25.00;68.60;;;;;;5051704;28;20021;-74
2021/06/24 01:38:53;;;;;;;26.40;6.72;;;25.00;68.70;;;;;;5051637;28;20036;-75
2021/06/24 01:41:19;;;;;;;30.38;6.22;;;25.00;68.70;;;;;;5052868;28;20029;-75
2021/06/24 01:43:46;;;;;;;27.30;6.57;;;25.00;68.60;;;;;;5052877;28;20100;-75
2021/06/24 01:46:12;;;;;;;27.73;6.53;;;25.00;68.70;;;;;;5055982;28;20057;-75
2021/06/24 01:48:39;;;;;;;30.77;7.57;;;25.00;68.70;;;;;;5056423;28;20028;-75
2021/06/24 01:51:05;;;;;;;34.13;7.10;;;25.00;69.00;;;;;;5056602;28;20068;-75
2021/06/24 01:53:31;;;;;;;28.02;6.95;;;25.00;68.30;;;;;;5073107;28;20543;-75
2021/06/24 01:55:58;;;;;;;35.35;6.70;;;25.00;68.40;;;;;;5076416;28;20025;-75
2021/06/24 01:58:26;;;;;;;25.45;6.53;;;25.00;68.40;;;;;;5076505;28;20111;-75
2021/06/24 02:00:56;;;;;;;21.95;6.60;;;25.00;68.20;;;;;;5075986;28;20025;-75
2021/06/24 02:03:23;;;;;;;25.35;6.03;;;25.10;68.30;;;;;;5060569;28;20487;-75
2021/06/24 02:05:51;;;;;;;31.83;6.88;;;25.10;68.20;;;;;;5056251;28;20021;-75
2021/06/24 02:08:27;;;;;;;28.35;7.20;;;25.10;68.10;;;;;;5071537;28;20033;-75
2021/06/24 02:10:55;;;;;;;28.73;6.30;;;25.10;67.90;;;;;;5056251;28;20025;-75
2021/06/24 02:13:21;;;;;;;26.95;6.80;;;25.20;68.10;;;;;;5055932;28;20033;-75
2021/06/24 02:15:47;;;;;;;27.45;6.63;;;25.20;67.80;;;;;;5055840;28;20505;-75
2021/06/24 02:18:13;;;;;;;28.55;6.82;;;25.20;67.80;;;;;;5056103;28;20073;-75
2021/06/24 02:20:40;;;;;;;28.90;7.82;;;25.20;67.70;;;;;;5055846;28;20021;-75
2021/06/24 02:23:06;;;;;;;25.38;6.05;;;25.30;67.60;;;;;;5055860;28;20033;-75
2021/06/24 02:25:33;;;;;;;24.92;6.25;;;25.40;67.40;;;;;;5055996;28;20459;-75
2021/06/24 02:27:59;;;;;;;26.13;6.90;;;25.40;67.20;;;;;;5055739;28;20104;-75
2021/06/24 02:30:25;;;;;;;31.52;6.97;;;25.40;67.00;;;;;;5055888;28;20104;-75
2021/06/24 02:32:52;;;;;;;30.55;6.35;;;25.40;66.90;;;;;;5063120;28;20028;-75
2021/06/24 02:35:19;;;;;;;25.85;6.00;;;25.50;67.00;;;;;;5075313;28;20491;-75
2021/06/24 02:37:46;;;;;;;31.80;7.72;;;25.50;67.00;;;;;;5075565;28;20029;-75
2021/06/24 02:40:14;;;;;;;25.35;6.50;;;25.60;67.00;;;;;;5075851;28;20087;-75
2021/06/24 02:42:40;;;;;;;25.05;6.60;;;25.60;67.00;;;;;;5075527;28;20068;-76
2021/06/24 02:45:08;;;;;;;30.58;6.47;;;25.70;67.00;;;;;;5075811;28;20067;-75
2021/06/24 02:47:34;;;;;;;27.98;6.25;;;25.80;67.00;;;;;;5075688;28;20485;-75
2021/06/24 02:49:59;;;;;;;32.67;6.72;;;25.80;66.90;;;;;;5075443;28;20039;-75
2021/06/24 02:52:25;;;;;;;22.45;6.38;;;25.80;67.00;;;;;;5075718;28;20036;-75
2021/06/24 02:54:52;;;;;;;34.63;7.03;;;25.90;67.10;;;;;;5075375;28;20427;-75
2021/06/24 02:57:19;;;;;;;23.60;6.97;;;25.90;67.10;;;;;;5075597;28;20077;-75
2021/06/24 02:59:45;;;;;;;27.33;7.05;;;25.90;67.20;;;;;;5074959;28;20104;-75
2021/06/24 03:02:11;;;;;;;36.47;7.10;;;26.00;67.40;;;;;;5075373;28;20363;-75
2021/06/24 03:04:37;;;;;;;27.48;7.10;;;25.90;67.30;;;;;;5075158;28;20029;-75
2021/06/24 03:07:03;;;;;;;30.60;7.30;;;26.00;67.30;;;;;;5073861;28;20060;-75
2021/06/24 03:09:29;;;;;;;31.58;7.20;;;26.00;67.50;;;;;;5070519;28;20028;-75
2021/06/24 03:11:55;;;;;;;25.88;6.40;;;26.00;67.40;;;;;;5054987;28;20025;-75
2021/06/24 03:14:22;;;;;;;21.05;6.53;;;26.10;67.40;;;;;;5055053;28;20115;-75
2021/06/24 03:16:47;;;;;;;32.13;6.82;;;26.10;67.30;;;;;;5054761;28;20025;-75
2021/06/24 03:19:13;;;;;;;35.20;7.40;;;26.20;67.40;;;;;;5055034;28;20036;-75
2021/06/24 03:21:40;;;;;;;33.85;7.38;;;26.20;67.40;;;;;;5054763;28;20495;-75
2021/06/24 03:24:06;;;;;;;33.35;7.70;;;26.20;67.50;;;;;;5069961;28;20033;-75
2021/06/24 03:26:33;;;;;;;27.50;6.82;;;26.20;67.60;;;;;;5055192;28;20037;-75
2021/06/24 03:28:59;;;;;;;35.00;7.93;;;26.30;67.60;;;;;;5054636;28;20035;-76
2021/06/24 03:31:25;;;;;;;25.35;7.22;;;26.30;67.50;;;;;;5054762;28;20033;-76
2021/06/24 03:33:51;;;;;;;34.10;8.23;;;26.30;67.60;;;;;;5054482;28;20094;-76
2021/06/24 03:36:18;;;;;;;34.22;8.02;;;26.30;67.80;;;;;;5063288;28;20462;-76
2021/06/24 03:38:46;;;;;;;27.20;7.90;;;26.40;68.30;;;;;;5059618;28;20450;-76
2021/06/24 03:41:12;;;;;;;36.53;9.13;;;26.40;68.70;;;;;;5054578;28;20410;-76
2021/06/24 03:43:38;;;;;;;37.00;8.80;;;26.50;69.40;;;;;;5054876;28;20064;-76
2021/06/24 03:46:04;;;;;;;34.78;9.38;;;26.50;69.90;;;;;;5054300;28;20106;-76
2021/06/24 03:48:30;;;;;;;37.10;9.68;;;26.40;70.30;;;;;;5054064;28;20029;-76
2021/06/24 03:50:56;;;;;;;35.65;9.07;;;26.40;70.30;;;;;;5053737;28;20036;-76
2021/06/24 03:53:21;;;;;;;30.63;8.52;;;26.40;70.20;;;;;;5054479;28;20033;-76
2021/06/24 03:55:47;;;;;;;41.08;9.02;;;26.40;69.90;;;;;;5053894;28;20025;-76
2021/06/24 03:58:14;;;;;;;37.60;9.10;;;26.40;69.80;;;;;;5054207;28;20040;-76
2021/06/24 04:00:42;;;;;;;33.70;10.02;;;26.50;70.10;;;;;;5069453;28;20119;-76
2021/06/24 04:03:09;;;;;;;28.65;8.48;;;26.50;70.20;;;;;;5053970;28;20033;-76
2021/06/24 04:05:35;;;;;;;24.52;8.13;;;26.50;70.20;;;;;;5069379;28;20200;-76
2021/06/24 04:08:02;;;;;;;38.55;9.32;;;26.50;70.80;;;;;;5056820;28;20121;-77
2021/06/24 04:10:29;;;;;;;30.63;8.60;;;26.60;70.10;;;;;;5073982;28;20374;-76
2021/06/24 04:12:55;;;;;;;33.53;8.82;;;26.70;69.90;;;;;;5073516;28;20115;-76
2021/06/24 04:15:22;;;;;;;30.85;8.68;;;26.70;69.40;;;;;;5073459;28;20028;-76
2021/06/24 04:17:48;;;;;;;32.55;8.18;;;26.80;69.10;;;;;;5073697;28;20020;-75
2021/06/24 04:20:16;;;;;;;27.42;7.60;;;26.90;68.50;;;;;;5073455;28;20031;-76
2021/06/24 04:22:42;;;;;;;31.70;7.95;;;26.90;67.80;;;;;;5064933;28;20029;-75
2021/06/24 04:25:09;;;;;;;28.52;7.82;;;26.90;67.30;;;;;;5073671;28;20028;-76
2021/06/24 04:27:34;;;;;;;30.27;8.18;;;27.00;67.00;;;;;;5073706;28;20067;-75
2021/06/24 04:30:00;;;;;;;29.52;7.57;;;27.00;66.60;;;;;;5073614;28;20024;-76
2021/06/24 04:32:26;;;;;;;27.50;7.75;;;27.00;66.30;;;;;;5076399;28;20037;-76
2021/06/24 04:34:52;;;;;;;31.95;8.02;;;27.10;66.10;;;;;;5083974;28;20107;-76
2021/06/24 04:37:17;;;;;;;31.80;8.15;;;27.20;66.00;;;;;;5086130;28;20024;-75
2021/06/24 04:39:43;;;;;;;29.60;8.65;;;27.20;65.70;;;;;;5093884;28;20072;-75
2021/06/24 04:42:09;;;;;;;38.30;7.85;;;27.20;65.50;;;;;;5083230;28;20486;-76
2021/06/24 04:44:36;;;;;;;38.97;8.80;;;27.20;65.30;;;;;;5082884;28;20042;-75
2021/06/24 04:47:03;;;;;;;32.45;8.13;;;27.20;65.40;;;;;;5081900;28;20035;-76
2021/06/24 04:49:29;;;;;;;26.48;7.72;;;27.30;65.30;;;;;;5079264;28;20473;-76
2021/06/24 04:51:55;;;;;;;34.55;7.95;;;27.30;65.20;;;;;;5083052;28;20044;-78
2021/06/24 04:54:20;;;;;;;29.65;8.32;;;27.30;65.10;;;;;;5083674;28;20061;-75
2021/06/24 04:56:46;;;;;;;31.77;9.18;;;27.30;64.90;;;;;;5093217;28;20100;-76
2021/06/24 04:59:12;;;;;;;29.55;8.35;;;27.30;64.80;;;;;;5093566;28;20028;-75
2021/06/24 05:01:38;;;;;;;25.95;7.20;;;27.30;64.60;;;;;;5077082;28;20033;-76
2021/06/24 05:04:04;;;;;;;35.92;8.18;;;27.40;64.30;;;;;;5072939;28;20032;-75
2021/06/24 05:06:29;;;;;;;31.20;7.57;;;27.40;64.10;;;;;;5073270;28;20032;-75
2021/06/24 05:08:55;;;;;;;25.08;7.30;;;27.40;64.00;;;;;;5072577;28;20024;-76
2021/06/24 05:11:21;;;;;;;36.80;8.15;;;27.50;63.80;;;;;;5079519;28;20394;-74
2021/06/24 05:13:47;;;;;;;30.92;8.43;;;27.60;63.60;;;;;;5082812;28;20024;-76
2021/06/24 05:16:13;;;;;;;24.58;7.43;;;27.60;63.40;;;;;;5081897;28;20021;-76
2021/06/24 05:18:40;;;;;;;35.25;8.90;;;27.60;63.30;;;;;;5082487;28;20031;-77
2021/06/24 05:21:06;;;;;;;25.52;8.15;;;27.70;63.10;;;;;;5081387;28;20020;-76
2021/06/24 05:23:32;;;;;;;28.98;7.82;;;27.80;62.90;;;;;;5085624;28;20425;-78
2021/06/24 05:25:58;;;;;;;26.92;7.47;;;27.90;62.80;;;;;;5085126;28;20024;-76
2021/06/24 05:28:24;;;;;;;27.67;7.43;;;28.00;62.40;;;;;;5087480;28;20104;-76
2021/06/24 05:30:49;;;;;;;24.88;7.88;;;28.10;62.10;;;;;;5084879;28;20033;-76
2021/06/24 05:33:16;;;;;;;29.27;7.57;;;28.10;61.90;;;;;;5096855;28;20027;-76
2021/06/24 05:35:42;;;;;;;27.65;7.40;;;28.20;61.70;;;;;;5096909;28;20522;-75
2021/06/24 05:38:11;;;;;;;25.80;7.82;;;28.20;61.50;;;;;;5096832;28;20110;-75
2021/06/24 05:40:38;;;;;;;33.70;7.63;;;28.30;61.40;;;;;;5096897;28;20150;-75
2021/06/24 05:43:04;;;;;;;33.92;7.88;;;28.40;61.40;;;;;;5096776;28;20040;-77
2021/06/24 05:45:31;;;;;;;25.85;6.80;;;28.50;61.20;;;;;;5096821;28;20039;-76
2021/06/24 05:47:57;;;;;;;24.15;7.57;;;28.60;61.00;;;;;;5096114;28;20023;-75
2021/06/24 05:50:25;;;;;;;28.88;7.65;;;28.70;60.80;;;;;;5091019;28;20031;-76
2021/06/24 05:52:53;;;;;;;24.35;7.85;;;28.70;60.60;;;;;;5076689;28;20495;-76
2021/06/24 05:55:19;;;;;;;31.95;7.78;;;28.80;60.50;;;;;;5076222;28;20032;-75
2021/06/24 05:57:45;;;;;;;25.35;7.35;;;28.90;60.30;;;;;;5071534;28;20566;-75
2021/06/24 06:00:13;;;;;;;25.75;7.13;;;28.90;60.00;;;;;;5056201;28;20099;-75
2021/06/24 06:02:40;;;;;;;30.98;7.35;;;28.90;59.80;;;;;;5056587;28;20098;-75
2021/06/24 06:05:06;;;;;;;24.08;7.55;;;29.00;59.70;;;;;;5056038;28;20024;-76
2021/06/24 06:07:33;;;;;;;27.38;7.82;;;29.00;59.60;;;;;;5056765;28;20025;-75
2021/06/24 06:09:59;;;;;;;24.75;7.30;;;29.10;59.60;;;;;;5055756;28;20498;-75
2021/06/24 06:12:27;;;;;;;30.13;7.10;;;29.10;59.70;;;;;;5056207;28;20033;-78
2021/06/24 06:14:52;;;;;;;20.75;7.65;;;29.00;59.60;;;;;;5055990;28;20112;-77
2021/06/24 06:17:18;;;;;;;34.05;8.02;;;29.10;59.80;;;;;;5063947;28;20100;-76
2021/06/24 06:19:44;;;;;;;26.33;7.60;;;29.10;59.80;;;;;;5096245;28;20426;-77
2021/06/24 06:22:10;;;;;;;27.90;7.90;;;29.20;59.90;;;;;;5096031;28;20398;-76
2021/06/24 06:24:36;;;;;;;29.63;7.63;;;29.30;59.90;;;;;;5096585;28;20024;-76
2021/06/24 06:27:01;;;;;;;20.98;7.53;;;29.30;59.90;;;;;;5096248;28;20020;-75
2021/06/24 06:29:27;;;;;;;29.42;7.88;;;29.40;59.80;;;;;;5095745;28;20020;-75
2021/06/24 06:31:53;;;;;;;19.63;7.35;;;29.50;59.70;;;;;;5084537;28;20360;-76
2021/06/24 06:34:19;;;;;;;22.48;8.20;;;29.60;59.50;;;;;;5084915;28;20104;-75
2021/06/24 06:36:44;;;;;;;29.52;8.57;;;29.70;59.60;;;;;;5086026;28;21163;-76
2021/06/24 06:39:10;;;;;;;28.25;7.90;;;29.80;59.70;;;;;;5077643;28;20497;-76
2021/06/24 06:41:36;;;;;;;24.00;7.28;;;29.80;59.70;;;;;;5085731;28;20032;-75
2021/06/24 06:44:02;;;;;;;22.60;6.95;;;29.90;59.70;;;;;;5075902;28;20029;-76
2021/06/24 06:46:27;;;;;;;28.70;7.22;;;30.00;59.80;;;;;;5055195;28;20057;-76
2021/06/24 06:48:53;;;;;;;27.25;8.05;;;30.10;59.60;;;;;;5055371;28;20042;-76
2021/06/24 06:51:23;;;;;;;25.55;7.47;;;30.10;59.40;;;;;;5054112;28;20053;-75
2021/06/24 06:53:49;;;;;;;22.38;7.18;;;30.20;59.20;;;;;;5055462;28;20111;-75
2021/06/24 06:56:14;;;;;;;31.48;8.43;;;30.20;59.10;;;;;;5055372;28;20115;-75
2021/06/24 06:58:40;;;;;;;31.67;7.57;;;30.20;59.30;;;;;;5054822;28;20029;-75
2021/06/24 07:01:06;;;;;;;24.42;7.82;;;30.20;59.30;;;;;;5054233;28;20103;-76
2021/06/24 07:03:31;;;;;;;23.58;7.78;;;30.20;59.30;;;;;;5054875;28;20045;-75
2021/06/24 07:05:57;;;;;;;28.35;7.82;;;30.20;59.40;;;;;;5055327;28;20025;-75
2021/06/24 07:08:23;;;;;;;24.13;7.75;;;30.30;59.60;;;;;;5054666;28;20029;-75
2021/06/24 07:10:49;;;;;;;27.48;8.90;;;30.40;59.60;;;;;;5055275;28;20032;-76
2021/06/24 07:13:15;;;;;;;26.80;7.28;;;30.50;59.40;;;;;;5055052;28;20407;-75
2021/06/24 07:15:40;;;;;;;28.95;7.75;;;30.70;59.20;;;;;;5077776;28;20106;-75
2021/06/24 07:18:06;;;;;;;30.05;6.85;;;30.90;58.90;;;;;;5083062;28;20020;-75
2021/06/24 07:20:32;;;;;;;29.65;8.98;;;31.00;58.60;;;;;;5077521;28;20020;-74
2021/06/24 07:22:58;;;;;;;22.38;6.95;;;31.20;58.30;;;;;;5074051;28;20165;-76
2021/06/24 07:25:24;;;;;;;29.40;7.53;;;31.40;57.80;;;;;;5074846;28;20089;-75
2021/06/24 07:27:51;;;;;;;28.60;7.32;;;31.50;58.20;;;;;;5075190;28;20025;-75
2021/06/24 07:30:18;;;;;;;26.27;7.13;;;31.60;57.20;;;;;;5074331;28;20032;-75
2021/06/24 07:32:44;;;;;;;16.67;6.53;;;31.70;57.30;;;;;;5074770;28;20039;-75
2021/06/24 07:35:10;;;;;;;24.20;6.95;;;31.80;57.10;;;;;;5074610;28;20025;-75
2021/06/24 07:37:36;;;;;;;23.77;6.80;;;31.90;56.60;;;;;;5075008;28;20028;-75
2021/06/24 07:40:04;;;;;;;26.35;7.93;;;32.00;56.60;;;;;;5067406;28;20048;-76
2021/06/24 07:42:30;;;;;;;23.13;7.45;;;32.00;56.50;;;;;;5053036;28;20087;-76
2021/06/24 07:44:55;;;;;;;21.02;7.18;;;32.20;56.40;;;;;;5054070;28;20033;-77
2021/06/24 07:47:21;;;;;;;26.70;7.20;;;32.20;56.40;;;;;;5054494;28;20029;-75
2021/06/24 07:49:47;;;;;;;17.75;6.80;;;32.30;56.40;;;;;;5054426;28;20115;-75
2021/06/24 07:52:14;;;;;;;24.73;7.63;;;32.40;56.30;;;;;;5054322;28;20049;-75
2021/06/24 07:54:39;;;;;;;21.05;6.63;;;32.50;56.30;;;;;;5053765;28;20037;-75
2021/06/24 07:57:05;;;;;;;24.83;7.40;;;32.60;56.10;;;;;;5053846;28;20036;-76
2021/06/24 07:59:31;;;;;;;20.25;5.35;;;32.60;56.30;;;;;;5054257;28;20032;-76
2021/06/24 08:01:57;;;;;;;17.80;6.07;;;32.70;55.80;;;;;;5053655;28;20037;-77
2021/06/24 08:04:23;;;;;;;23.48;6.80;;;32.70;55.90;;;;;;5053269;28;20032;-76
2021/06/24 08:06:48;;;;;;;16.17;6.10;;;32.80;55.90;;;;;;5055384;28;20112;-75
2021/06/24 08:09:15;;;;;;;27.15;6.30;;;32.80;55.70;;;;;;5056989;28;20383;-76
2021/06/24 08:11:41;;;;;;;14.73;6.13;;;32.90;55.60;;;;;;5054778;28;20037;-76
2021/06/24 08:14:07;;;;;;;21.02;6.20;;;32.90;55.50;;;;;;5053993;28;20467;-75
2021/06/24 08:16:33;;;;;;;15.15;5.82;;;33.10;55.60;;;;;;5054181;28;20021;-75
2021/06/24 08:18:59;;;;;;;22.17;5.85;;;33.20;55.00;;;;;;5056030;28;20394;-76
2021/06/24 08:21:25;;;;;;;24.00;6.25;;;33.30;54.70;;;;;;5053686;28;20086;-76
2021/06/24 08:23:51;;;;;;;16.25;6.10;;;33.40;54.90;;;;;;5069621;28;20033;-76
2021/06/24 08:26:18;;;;;;;17.80;6.07;;;33.50;54.90;;;;;;5052552;28;20420;-78
2021/06/24 08:28:43;;;;;;;17.80;5.55;;;33.60;54.20;;;;;;5051516;28;20033;-77
2021/06/24 08:31:09;;;;;;;16.02;5.47;;;33.70;53.90;;;;;;5072636;28;20404;-79
2021/06/24 08:33:35;;;;;;;25.17;6.85;;;33.80;53.70;;;;;;5055292;28;20029;-78
2021/06/24 08:36:01;;;;;;;21.50;5.97;;;33.90;53.60;;;;;;5056455;28;20017;-77
2021/06/24 08:38:26;;;;;;;20.13;6.10;;;34.00;53.30;;;;;;5062242;28;20043;-76
2021/06/24 08:40:56;;;;;;;19.98;5.78;;;34.20;53.10;;;;;;5057474;28;20025;-76
2021/06/24 08:43:21;;;;;;;19.95;6.35;;;34.30;52.70;;;;;;5071649;28;20032;-76
2021/06/24 08:45:47;;;;;;;16.85;5.53;;;34.50;52.70;;;;;;5055572;28;20486;-76
2021/06/24 08:48:15;;;;;;;19.65;5.88;;;34.70;52.50;;;;;;5056093;28;20483;-76
2021/06/24 08:50:50;;;;;;;20.35;5.55;;;35.10;52.30;;;;;;5055468;28;20028;-75
2021/06/24 08:53:20;;;;;;;19.77;5.88;;;35.50;51.70;;;;;;5066043;28;20032;-77
2021/06/24 08:55:51;;;;;;;15.18;5.78;;;35.80;50.90;;;;;;5064510;28;20085;-76
2021/06/24 08:58:17;;;;;;;17.20;5.43;;;36.10;50.60;;;;;;5062062;28;20041;-76
2021/06/24 09:00:43;;;;;;;16.00;5.40;;;36.40;50.10;;;;;;5055455;28;20399;-76
2021/06/24 09:03:15;;;;;;;17.33;4.93;;;36.70;49.60;;;;;;5052007;28;20127;-76
2021/06/24 09:05:51;;;;;;;17.30;5.72;;;37.00;49.20;;;;;;5055589;28;20567;-77
2021/06/24 09:08:59;;;;;;;12.93;5.00;;;37.30;48.80;;;;;;5053188;28;20051;-76
2021/06/24 09:11:28;;;;;;;14.15;5.65;;;37.50;48.40;;;;;;5042182;28;20033;-77
2021/06/24 09:14:11;;;;;;;16.42;5.10;;;37.90;48.20;;;;;;5053094;28;20437;-77
2021/06/24 09:16:40;;;;;;;;;;;38.20;48.00;;;;;;5053138;28;20475;-77
2021/06/24 09:19:20;;;;;;;20.63;4.88;;;38.60;48.30;;;;;;5052742;28;19962;-80
2021/06/24 09:21:48;;;;;;;22.67;5.05;;;39.00;47.20;;;;;;5053068;28;20112;-76
2021/06/24 09:24:37;;;;;;;20.23;5.45;;;39.30;47.10;;;;;;5054168;28;20498;-77
2021/06/24 09:27:05;;;;;;;15.57;5.05;;;39.70;46.30;;;;;;5061865;28;20029;-76
2021/06/24 09:29:33;;;;;;;16.08;5.50;;;40.00;46.00;;;;;;5053179;28;20022;-78
2021/06/24 09:31:59;;;;;;;19.00;4.80;;;40.20;45.70;;;;;;5053223;28;20029;-77
2021/06/24 09:34:26;;;;;;;16.08;4.78;;;40.60;45.20;;;;;;5068646;28;20037;-77
2021/06/24 09:36:55;;;;;;;16.13;5.05;;;40.90;44.60;;;;;;5057323;28;20052;-75
2021/06/24 09:39:29;;;;;;;18.80;4.80;;;41.20;44.10;;;;;;5052928;28;20048;-76
2021/06/24 09:42:02;;;;;;;16.75;4.82;;;41.60;44.10;;;;;;5051680;28;20037;-76
2021/06/24 09:44:29;;;;;;;16.70;4.90;;;42.00;43.50;;;;;;5053082;28;20021;-77
2021/06/24 09:46:56;;;;;;;16.50;4.80;;;42.40;43.20;;;;;;5052659;28;20111;-77
2021/06/24 09:49:40;;;;;;;18.55;5.47;;;42.80;42.80;;;;;;5052874;28;20029;-77
2021/06/24 09:52:05;;;;;;;32.33;5.95;;;43.30;42.50;;;;;;5051705;28;20514;-77
2021/06/24 09:54:46;;;;;;;11.77;4.82;;;43.80;41.80;;;;;;5052823;28;20028;-77
2021/06/24 09:57:23;;;;;;;17.90;5.63;;;44.20;41.40;;;;;;5052800;28;20052;-76
2021/06/24 09:59:50;;;;;;;16.52;5.10;;;44.90;41.10;;;;;;5069446;28;20029;-74
2021/06/24 10:02:18;;;;;;;24.25;5.45;;;45.40;40.70;;;;;;5072604;28;20039;-76
2021/06/24 10:04:45;;;;;;;18.35;5.38;;;45.80;40.00;;;;;;5072838;28;20040;-75
2021/06/24 10:07:13;;;;;;;13.65;4.50;;;46.20;39.60;;;;;;5075953;28;20024;-76
2021/06/24 10:09:40;;;;;;;14.48;4.55;;;46.50;39.10;;;;;;5089519;28;20035;-76
2021/06/24 10:12:08;;;;;;;14.65;5.15;;;46.80;38.70;;;;;;5074667;28;20336;-77
2021/06/24 10:14:34;;;;;;;14.30;4.68;;;47.10;38.50;;;;;;5076126;28;20024;-77
2021/06/24 10:17:02;;;;;;;18.20;4.80;;;47.40;38.30;;;;;;5076114;28;20044;-76
2021/06/24 10:19:33;;;;;;;17.67;5.22;;;47.70;38.10;;;;;;5076209;28;20048;-76
2021/06/24 10:22:10;;;;;;;16.77;4.93;;;48.00;37.90;;;;;;5075855;28;20028;-76
2021/06/24 10:24:56;;;;;;;21.33;5.22;;;48.20;37.60;;;;;;5073801;28;20037;-77
2021/06/24 10:27:29;;;;;;;19.40;5.57;;;48.50;37.40;;;;;;5053533;28;20484;-76
2021/06/24 10:29:55;;;;;;;13.48;4.55;;;48.70;37.40;;;;;;5055775;28;20021;-76
2021/06/24 10:32:31;;;;;;;19.60;5.10;;;48.90;37.10;;;;;;5055581;28;20486;-76
2021/06/24 10:35:18;;;;;;;19.10;4.75;;;49.00;36.90;;;;;;5055483;28;20044;-76
2021/06/24 10:37:49;;;;;;;18.15;4.72;;;49.30;37.00;;;;;;5052482;28;20506;-76
2021/06/24 10:40:41;;;;;;;17.92;4.35;;;49.50;36.90;;;;;;5054735;28;20083;-75
2021/06/24 10:43:11;;;;;;;14.45;4.40;;;49.50;36.90;;;;;;5051960;28;20037;-76
2021/06/24 10:45:40;;;;;;;14.95;4.60;;;49.60;36.60;;;;;;5053997;28;20033;-77
2021/06/24 10:48:30;;;;;;;23.35;4.88;;;49.70;36.10;;;;;;5054172;28;20024;-77
2021/06/24 10:51:06;;;;;;;12.50;4.63;;;49.80;35.80;;;;;;5053559;28;20027;-77
2021/06/24 10:53:32;;;;;;;13.32;4.60;;;49.80;35.80;;;;;;5053673;28;20036;-77
2021/06/24 10:55:58;;;;;;;15.35;4.50;;;49.70;35.70;;;;;;5054736;28;20025;-76
2021/06/24 10:58:28;;;;;;;19.23;4.70;;;49.70;35.60;;;;;;5054830;28;20114;-76
2021/06/24 11:00:55;;;;;;;14.50;4.43;;;49.70;35.30;;;;;;5055077;28;20029;-76
2021/06/24 11:03:26;;;;;;;21.67;5.10;;;49.60;35.10;;;;;;5054999;28;20029;-76
2021/06/24 11:06:07;;;;;;;23.17;5.43;;;49.80;35.00;;;;;;5055038;28;20036;-76
2021/06/24 11:08:33;;;;;;;17.63;4.82;;;49.80;34.70;;;;;;5055628;28;20036;-77
2021/06/24 11:11:06;;;;;;;14.80;4.95;;;50.00;34.90;;;;;;5070433;28;20398;-77
2021/06/24 11:13:38;;;;;;;22.92;5.18;;;50.10;34.50;;;;;;5055080;28;20037;-76
2021/06/24 11:16:07;;;;;;;23.73;4.82;;;50.10;34.40;;;;;;5055018;28;20436;-76
2021/06/24 11:18:36;;;;;;;20.27;5.15;;;50.20;34.40;;;;;;5053639;28;20036;-77
2021/06/24 11:21:08;;;;;;;24.15;5.38;;;50.20;34.40;;;;;;5054873;28;20522;-77
2021/06/24 11:23:36;;;;;;;18.33;5.47;;;50.10;34.50;;;;;;5054639;28;20044;-77
2021/06/24 11:26:07;;;;;;;29.98;5.82;;;50.10;35.50;;;;;;5054889;28;20052;-77
2021/06/24 11:31:18;;;;;;;22.67;5.47;;;50.30;33.80;;;;;;5054481;28;20025;-77
2021/06/24 11:34:25;;;;;;;24.58;6.90;;;50.40;33.70;;;;;;5034892;28;20040;-79
2021/06/24 11:37:03;;;;;;;32.33;6.15;;;50.50;33.20;;;;;;5053908;28;20036;-77
2021/06/24 11:39:39;;;;;;;20.30;5.50;;;50.60;33.00;;;;;;5054332;28;20040;-78
2021/06/24 11:42:16;;;;;;;27.55;5.57;;;50.80;32.90;;;;;;5054094;28;20494;-77
2021/06/24 11:44:49;;;;;;;26.60;4.90;;;51.00;32.70;;;;;;5054090;28;20552;-76
2021/06/24 11:47:22;;;;;;;27.70;5.82;;;51.10;32.60;;;;;;5054298;28;20021;-75
2021/06/24 12:04:15;;;;;;;22.60;5.53;;;51.60;32.80;;;;;;5053883;28;20468;-76
2021/06/24 12:06:42;;;;;;;26.65;5.57;;;51.50;32.80;;;;;;5054519;28;20036;-77
2021/06/24 12:09:08;;;;;;;24.17;5.25;;;51.50;33.00;;;;;;5053556;28;20017;-73
2021/06/24 12:11:35;;;;;;;23.38;5.15;;;51.60;33.00;;;;;;5053093;28;20421;-77
2021/06/24 12:14:22;;;;;;;23.52;5.47;;;51.50;32.90;;;;;;5053247;28;20422;-76
2021/06/24 12:17:17;;;;;;;23.00;5.30;;;51.20;32.60;;;;;;5045440;28;20029;-76
2021/06/24 12:20:03;;;;;;;27.98;5.75;;;51.00;32.60;;;;;;5034000;28;20383;-76
2021/06/24 12:22:34;;;;;;;18.90;5.38;;;50.90;32.60;;;;;;5033613;28;20037;-77
2021/06/24 12:25:01;;;;;;;20.85;5.43;;;50.60;33.30;;;;;;5033537;28;20060;-76
2021/06/24 12:27:31;;;;;;;27.02;6.50;;;50.50;32.80;;;;;;5033052;28;20029;-76
2021/06/24 12:30:00;;;;;;;24.88;5.50;;;50.40;33.00;;;;;;5033450;28;20021;-76
2021/06/24 12:32:27;;;;;;;24.98;6.20;;;50.20;33.00;;;;;;5033898;28;20022;-75
2021/06/24 12:34:56;;;;;;;19.15;5.57;;;50.00;33.10;;;;;;5033422;28;20056;-76
2021/06/24 12:37:33;;;;;;;27.00;5.97;;;49.80;33.30;;;;;;5038164;28;20099;-78
2021/06/24 12:40:00;;;;;;;24.05;5.53;;;49.80;33.50;;;;;;5053506;28;20035;-75
2021/06/24 12:42:26;;;;;;;25.90;5.60;;;49.70;33.60;;;;;;5052920;28;20033;-76
2021/06/24 12:44:52;;;;;;;26.80;5.47;;;49.70;33.60;;;;;;5053205;28;20479;-75
2021/06/24 12:47:44;;;;;;;17.58;4.63;;;49.70;33.60;;;;;;5053394;28;20087;-76
2021/06/24 12:50:16;;;;;;;16.95;5.13;;;49.80;33.60;;;;;;5053148;28;20031;-75
2021/06/24 12:52:46;;;;;;;30.58;5.80;;;49.80;33.60;;;;;;5052895;28;20513;-75
2021/06/24 12:55:31;;;;;;;18.45;5.38;;;49.80;33.60;;;;;;5052969;28;20029;-75
2021/06/24 12:57:59;;;;;;;17.80;4.95;;;49.90;33.70;;;;;;5042622;28;20041;-76
2021/06/24 13:00:25;;;;;;;30.40;5.32;;;49.90;33.80;;;;;;5053247;28;20028;-76